Schnellsuche:     vonnach     am:               Ankunft heute   Abflug heute   
Wetterdaten des Sylter Flughafens. Alle Angaben sind ohne Gewähr.



Datum: 2018-09-25 17:10 UTC
   
Windrichtung: 240°
Windgeschwindigkeit: 7 - 16 Kt.
QNH: 1035 hPa
Temperatur: 13 °C
Taupunkt: 7 °C
rel. Luftfeuchte: 66 %

METAR EDXW 251650Z 23007KT 9999 FEW039 SCT055 13/08 Q1035 RMK ATIS TAN=

Wolkenhöhen in den letzten 48 Stunden:






 

Im Jettempo nach Sylt!



Rhein-Neckar-Air

Mannheim
Die Rhein-Neckar-Air fliegt vom 28. April bis zum 26. Oktober 2018 nach Mannheim. Zur Seite der Rhein-Neckar-Air: www.flyRNA.de

Lufthansa

München, Frankfurt/Main und Zürich
Die Lufthansa fliegt vom 26. September bis zum 26. Oktober 2019 nach München, vom 29. September bis zum 12. Oktober 2019 nach Frankfurt/Main und vom 13. September bis zum 26. Oktober 2019 nach Zürich. Zur Seite der Lufthansa: www.lufthansa.de

Syltair

Hamburg
Die Syltair fliegt vom 29. März bis zum 04. Oktober 2018 nach Hamburg. Zur Seite der Syltair: www.syltair.de